Terminal Aerodrome Forecast
Issued by NWS

Home | Current Version | Previous Version | Text Only | Print | Product List | Glossary On
Versions: 1 2 3 4 5 6 7 8 9 10 11 12 13 14 15 16
000
FTAK31 PAJN 290800 AAA
TAFAYA
TAF AMD
PAYA 290850Z 2909/3006 10005KT P6SM -SHRA BKN025 OVC035
      TEMPO 2909/2912 VRB05G15KT 2SM -SHRA BR OVC020
     FM291200 13012KT P6SM -SHRA SCT015 BKN035 BKN050
     FM291700 09012KT 6SM -SHRA SCT015 OVC025
      AMD LTD TO CLD VIS AND WIND 2909/2910=

USA.gov is the U.S. government's official web portal to all federal, state and local government web resources and services.